Current Weather Conditions: station 63101

sailwx.info

Wind from 230 at 11 knots

Wave height 1.6 meters (5 feet), 5 second period

Air temperature 12.1° C

Last reported at 2019-Sep-20 19:00 UTC.
Time now 2019-Sep-20 20:32 UTC

Location: N 61°12' E 000°54'.
View on Google Maps.

See reports from other nearby stations

  
Tides and Currents Weather Stations Pressure Air Temp Water Temp Dewpoint Dewpoint Depression Visibility Wind Speed Wind Dir Waves Ship Positions
date/time (UTC)wind fromknots sea level pressurealtimeterstation pressurevisibilityair tempwater tempwave heightnotes
2019-Sep-20 19:00 230 11 12.1 1.6
2019-Sep-20 18:00 240 11 12.7 1.7
2019-Sep-20 17:00 250 11 13.4 1.9
2019-Sep-20 16:00 230 9 13.1 1.8
2019-Sep-20 15:00 260 11 15.1 1.8
2019-Sep-20 14:00 260 13 13.6 1.8
2019-Sep-20 13:00 250 12 12.4 1.7
2019-Sep-20 12:00 260 8 13.4 1.8
2019-Sep-20 11:00 260 9 12.6 1.7
2019-Sep-20 10:00 250 13 12.3 1.8
2019-Sep-20 09:00 250 9 12.9 1.9
2019-Sep-20 08:00 260 14 12.0 1.9
2019-Sep-20 07:00 270 18 11.7 2.0
2019-Sep-20 06:00 270 19 11.4 1.9
2019-Sep-20 05:00 270 19 11.3 1.9
2019-Sep-20 04:00 270 20 11.4 2.0
2019-Sep-20 03:00 280 20 11.6 1.9
2019-Sep-20 02:00 280 20 11.7 1.8
2019-Sep-20 01:00 270 19 11.7 1.7
2019-Sep-20 00:00 270 19 11.6 1.6
2019-Sep-19 23:00 270 17 11.4 1.6
2019-Sep-19 22:00 270 17 11.4 1.7
2019-Sep-19 21:00 270 18 11.3 1.5
2019-Sep-19 20:00 270 19 11.3 1.6
2019-Sep-19 19:00 270 19 11.5 1.5
2019-Sep-19 18:00 260 15 11.6 1.4
2019-Sep-19 17:00 260 14 11.6 1.5
2019-Sep-19 16:00 260 14 11.6 1.5
2019-Sep-19 15:00 260 14 11.5 1.6
2019-Sep-19 14:00 250 14 11.4 1.7
2019-Sep-19 13:00 210 15 9.9 1.7
2019-Sep-19 12:00 180 20 8.6 1.6
2019-Sep-19 11:00 180 20 8.0 1.5
2019-Sep-19 10:00 170 17 7.8 1.3
2019-Sep-19 09:00 170 14 7.6 1.3
2019-Sep-19 08:00 180 11 8.2 1.3
2019-Sep-19 07:00 180 11 8.6 1.4
2019-Sep-19 06:00 200 6 8.4 1.4
2019-Sep-19 05:00 220 6 8.8 1.4
2019-Sep-19 04:00 230 5 8.9 1.5
2019-Sep-19 03:00 260 4 9.3 1.6
2019-Sep-19 02:00 300 4 9.3 1.5
2019-Sep-19 01:00 290 5 9.5 1.5
2019-Sep-19 00:00 290 5 9.3 1.6
2019-Sep-18 23:00 310 6 9.5 1.6
2019-Sep-18 22:00 320 5 9.6 1.7
2019-Sep-18 21:00 340 6 9.6 1.7
2019-Sep-18 20:00 330 6 9.7 1.7